Terminal Aerodrome Forecast
Issued by NWS Rapid City, SD

Home | Current Version | Previous Version | Text Only | Print | Product List | Glossary Off
Versions: 1 2 3 4 5 6 7 8 9 10 11 12 13 14 15 16

711
FTUS43 KUNR 211120
TAFRAP
TAF
KRAP 211120Z 2112/2212 32008KT P6SM SKC
     FM211500 34016KT P6SM BKN080
     FM212100 33011KT P6SM VCSH OVC070
     FM220200 30007KT P6SM SCT070=

USA.gov is the U.S. government's official web portal to all federal, state and local government web resources and services.